createdAt,value
2023-04-04T00:00:27.447Z,94.90
2023-04-04T00:02:54.201Z,95.00
2023-04-04T00:05:20.879Z,95.00
2023-04-04T00:07:47.850Z,94.80
2023-04-04T00:10:15.544Z,94.60
2023-04-04T00:12:43.093Z,94.40
2023-04-04T00:15:10.645Z,94.60
2023-04-04T00:17:37.300Z,94.80
2023-04-04T00:20:04.530Z,95.00
2023-04-04T00:22:32.322Z,95.00
2023-04-04T00:24:59.122Z,94.90
2023-04-04T00:27:26.180Z,95.10
2023-04-04T00:29:54.249Z,95.10
2023-04-04T00:32:21.073Z,95.10
2023-04-04T00:34:53.378Z,95.30
2023-04-04T00:37:20.291Z,95.20
2023-04-04T00:39:47.728Z,95.40
2023-04-04T00:42:14.484Z,95.30
2023-04-04T00:44:41.451Z,95.10
2023-04-04T00:47:08.307Z,95.10
2023-04-04T00:49:34.965Z,95.10
2023-04-04T00:52:01.618Z,94.60
2023-04-04T00:54:29.777Z,94.50
2023-04-04T00:56:56.747Z,94.40
2023-04-04T00:59:26.115Z,94.30
2023-04-04T01:01:52.956Z,94.20
2023-04-04T01:04:19.693Z,94.20
2023-04-04T01:06:46.869Z,94.60
2023-04-04T01:09:13.604Z,94.70
2023-04-04T01:11:40.883Z,94.40
2023-04-04T01:14:07.696Z,94.70
2023-04-04T01:16:36.175Z,94.90
2023-04-04T01:19:06.326Z,95.20
2023-04-04T01:21:34.212Z,95.50
2023-04-04T01:24:04.918Z,95.20
2023-04-04T01:26:31.700Z,94.90
2023-04-04T01:29:00.082Z,94.50
2023-04-04T01:31:41.182Z,94.70
2023-04-04T01:34:10.887Z,94.60
2023-04-04T01:37:00.143Z,94.50
2023-04-04T01:39:52.678Z,94.50
2023-04-04T01:42:20.247Z,94.60
2023-04-04T01:44:47.283Z,94.90
2023-04-04T01:47:13.994Z,95.20
2023-04-04T01:49:40.901Z,95.40
2023-04-04T01:52:07.611Z,95.60
2023-04-04T01:54:36.025Z,95.90
2023-04-04T01:57:02.992Z,95.80
2023-04-04T01:59:29.833Z,95.60
2023-04-04T02:01:57.428Z,95.70
2023-04-04T02:04:24.330Z,95.70
2023-04-04T02:06:52.572Z,95.70
2023-04-04T02:09:19.282Z,96.00
2023-04-04T02:11:45.932Z,96.20
2023-04-04T02:14:12.768Z,96.00
2023-04-04T02:16:39.409Z,96.00
2023-04-04T02:19:06.119Z,96.00
2023-04-04T02:21:32.775Z,96.10
2023-04-04T02:23:59.556Z,96.40
2023-04-04T02:26:26.205Z,96.50
2023-04-04T02:28:52.870Z,96.00
2023-04-04T02:31:19.680Z,95.80
2023-04-04T02:33:46.519Z,95.70
2023-04-04T02:36:13.883Z,95.50
2023-04-04T02:38:40.993Z,95.30
2023-04-04T02:41:07.647Z,95.30
2023-04-04T02:43:34.275Z,95.30
2023-04-04T02:46:07.808Z,95.20
2023-04-04T02:48:41.801Z,95.30
2023-04-04T02:51:08.940Z,95.50
2023-04-04T02:53:35.689Z,95.90
2023-04-04T02:56:05.795Z,96.10
2023-04-04T02:58:32.875Z,96.00
2023-04-04T03:00:59.628Z,95.80
2023-04-04T03:03:27.277Z,95.80
2023-04-04T03:05:54.156Z,95.90
2023-04-04T03:08:20.825Z,96.20
2023-04-04T03:10:47.455Z,96.50
2023-04-04T03:13:14.309Z,96.80
2023-04-04T03:15:40.967Z,97.00
2023-04-04T03:18:08.422Z,96.90
2023-04-04T03:20:35.350Z,97.00
2023-04-04T03:23:02.086Z,96.90
2023-04-04T03:25:29.076Z,96.80
2023-04-04T03:27:55.929Z,96.70
2023-04-04T03:30:22.643Z,96.70
2023-04-04T03:32:50.887Z,96.80
2023-04-04T03:35:17.863Z,96.70
2023-04-04T03:37:44.669Z,96.70
2023-04-04T03:40:11.758Z,96.50
2023-04-04T03:42:38.445Z,96.60
2023-04-04T03:45:05.380Z,96.80
2023-04-04T03:47:32.083Z,96.90
2023-04-04T03:49:58.999Z,97.10
2023-04-04T03:52:25.664Z,96.90
2023-04-04T03:54:52.341Z,96.80
2023-04-04T03:57:19.020Z,96.80
2023-04-04T03:59:45.711Z,96.80
2023-04-04T04:02:12.361Z,96.90
2023-04-04T04:04:39.198Z,97.10
2023-04-04T04:07:05.998Z,97.00
2023-04-04T04:09:32.649Z,97.10
2023-04-04T04:11:59.320Z,97.00
2023-04-04T04:14:26.285Z,96.90
2023-04-04T04:16:52.951Z,96.70
2023-04-04T04:19:19.645Z,96.70
2023-04-04T04:21:46.359Z,96.70
2023-04-04T04:24:12.992Z,96.70
2023-04-04T04:26:39.633Z,97.00
2023-04-04T04:29:07.634Z,97.10
2023-04-04T04:31:34.440Z,97.20
2023-04-04T04:34:01.188Z,97.10
2023-04-04T04:36:27.929Z,97.10
2023-04-04T04:38:54.595Z,97.10
2023-04-04T04:41:21.991Z,97.30
2023-04-04T04:43:48.642Z,97.30
2023-04-04T04:46:15.696Z,97.20
2023-04-04T04:48:42.417Z,96.90
2023-04-04T04:51:09.137Z,96.90
2023-04-04T04:53:36.048Z,96.70
2023-04-04T04:56:03.417Z,96.60
2023-04-04T04:58:30.212Z,96.60
2023-04-04T05:00:59.772Z,96.80
2023-04-04T05:03:27.795Z,96.80
2023-04-04T05:05:54.566Z,96.80
2023-04-04T05:08:21.961Z,96.80
2023-04-04T05:10:49.667Z,96.90
2023-04-04T05:13:16.302Z,96.90
2023-04-04T05:15:42.932Z,96.70
2023-04-04T05:18:09.722Z,96.80
2023-04-04T05:20:36.619Z,96.90
2023-04-04T05:23:03.340Z,97.00
2023-04-04T05:25:30.008Z,97.10
2023-04-04T05:27:58.540Z,97.20
2023-04-04T05:30:25.268Z,97.20
2023-04-04T05:32:52.603Z,97.10
2023-04-04T05:35:19.433Z,97.10
2023-04-04T05:37:46.143Z,97.10
2023-04-04T05:40:13.218Z,97.20
2023-04-04T05:42:39.996Z,97.20
2023-04-04T05:45:07.318Z,97.20
2023-04-04T05:47:34.121Z,97.30
2023-04-04T05:50:01.071Z,97.20
2023-04-04T05:52:27.977Z,97.10
2023-04-04T05:54:54.789Z,97.10
2023-04-04T05:57:22.958Z,96.90
2023-04-04T05:59:50.180Z,97.00
2023-04-04T06:02:17.411Z,97.20
2023-04-04T06:04:45.565Z,97.10
2023-04-04T06:07:12.344Z,97.30
2023-04-04T06:09:40.068Z,97.50
2023-04-04T06:12:06.965Z,97.60
2023-04-04T06:14:33.620Z,97.50
2023-04-04T06:17:00.621Z,97.50
2023-04-04T06:19:27.287Z,97.60
2023-04-04T06:21:54.026Z,98.00
2023-04-04T06:24:20.773Z,98.20
2023-04-04T06:26:51.321Z,98.20
2023-04-04T06:29:18.644Z,98.00
2023-04-04T06:31:45.477Z,98.10
2023-04-04T06:34:12.238Z,98.20
2023-04-04T06:36:38.927Z,98.30
2023-04-04T06:39:05.695Z,98.20
2023-04-04T06:41:32.497Z,98.00
2023-04-04T06:43:59.751Z,98.10
2023-04-04T06:46:27.400Z,98.00
2023-04-04T06:48:54.949Z,98.30
2023-04-04T06:51:21.815Z,98.20
2023-04-04T06:53:49.150Z,98.10
2023-04-04T06:56:15.970Z,98.30
2023-04-04T06:58:43.115Z,98.60
2023-04-04T07:01:09.867Z,98.50
2023-04-04T07:03:36.581Z,98.20
2023-04-04T07:06:04.461Z,98.20
2023-04-04T07:08:36.277Z,98.20
2023-04-04T07:11:04.597Z,98.10
2023-04-04T07:13:31.297Z,97.90
2023-04-04T07:15:57.955Z,97.70
2023-04-04T07:18:24.646Z,97.60
2023-04-04T07:20:51.341Z,97.40
2023-04-04T07:23:17.995Z,97.60
2023-04-04T07:25:44.926Z,97.60
2023-04-04T07:28:13.522Z,97.70
2023-04-04T07:30:40.921Z,97.60
2023-04-04T07:33:08.026Z,97.90
2023-04-04T07:35:35.340Z,97.90
2023-04-04T07:38:02.986Z,97.70
2023-04-04T07:40:29.766Z,97.60
2023-04-04T07:42:56.474Z,97.90
2023-04-04T07:45:23.387Z,98.00
2023-04-04T07:47:50.125Z,97.90
2023-04-04T07:50:16.951Z,98.00
2023-04-04T07:52:49.969Z,97.90
2023-04-04T07:55:17.034Z,97.80
2023-04-04T07:57:44.686Z,97.60
2023-04-04T08:00:11.926Z,97.60
2023-04-04T08:02:39.454Z,97.50
2023-04-04T08:05:06.930Z,97.40
2023-04-04T08:07:33.688Z,97.50
2023-04-04T08:10:00.617Z,97.40
2023-04-04T08:12:27.801Z,97.20
2023-04-04T08:14:54.492Z,97.20
2023-04-04T08:17:21.177Z,97.20
2023-04-04T08:19:47.855Z,97.20
2023-04-04T08:22:14.582Z,97.30
2023-04-04T08:24:41.316Z,97.00
2023-04-04T08:27:08.021Z,96.90
2023-04-04T08:29:34.843Z,97.10
2023-04-04T08:32:01.667Z,97.20
2023-04-04T08:34:28.769Z,97.10
2023-04-04T08:36:55.996Z,97.20
2023-04-04T08:39:22.749Z,97.20
2023-04-04T08:41:57.819Z,97.40
2023-04-04T08:44:26.246Z,97.40
2023-04-04T08:46:54.173Z,97.40
2023-04-04T08:49:23.836Z,97.60
2023-04-04T08:51:53.316Z,97.50
2023-04-04T08:54:21.869Z,97.60
2023-04-04T08:56:49.426Z,97.70
2023-04-04T08:59:18.906Z,97.60
2023-04-04T09:01:45.990Z,97.70
2023-04-04T09:04:12.766Z,97.60
2023-04-04T09:06:40.168Z,97.60
2023-04-04T09:09:07.627Z,97.50
2023-04-04T09:11:35.855Z,97.50
2023-04-04T09:14:04.647Z,97.50
2023-04-04T09:16:31.518Z,97.40
2023-04-04T09:18:58.218Z,97.30
2023-04-04T09:21:24.924Z,97.50
2023-04-04T09:24:01.953Z,97.40
2023-04-04T09:26:28.656Z,97.30
2023-04-04T09:28:55.954Z,97.10
2023-04-04T09:31:24.849Z,97.00
2023-04-04T09:33:51.671Z,96.90
2023-04-04T09:36:18.756Z,96.80
2023-04-04T09:38:48.792Z,96.70
2023-04-04T09:41:16.513Z,96.60
2023-04-04T09:43:45.478Z,96.40
2023-04-04T09:46:12.310Z,96.20
2023-04-04T09:48:39.035Z,95.70
2023-04-04T09:51:12.868Z,95.30
2023-04-04T09:53:42.095Z,95.20
2023-04-04T09:56:09.278Z,94.70
2023-04-04T09:58:37.307Z,94.40
2023-04-04T10:01:09.957Z,94.20
2023-04-04T10:03:40.664Z,94.00
2023-04-04T10:06:09.854Z,93.80
2023-04-04T10:08:39.836Z,93.30
2023-04-04T10:11:12.075Z,93.40
2023-04-04T10:13:44.789Z,93.40
2023-04-04T10:16:12.308Z,93.30
2023-04-04T10:18:39.673Z,92.80
2023-04-04T10:23:40.376Z,91.80
2023-04-04T10:26:07.709Z,91.70
2023-04-04T10:28:34.501Z,91.40
2023-04-04T10:31:16.377Z,91.20
2023-04-04T10:34:08.041Z,90.80
2023-04-04T10:36:51.945Z,89.80
2023-04-04T10:39:32.561Z,89.70
2023-04-04T10:42:01.676Z,89.90
2023-04-04T10:44:34.099Z,89.60
2023-04-04T10:47:22.584Z,86.70
2023-04-04T10:49:50.719Z,86.10
2023-04-04T10:52:23.807Z,85.70
2023-04-04T10:54:52.800Z,83.20
2023-04-04T10:57:20.042Z,83.60
2023-04-04T11:00:01.638Z,83.50
2023-04-04T11:03:02.588Z,83.70
2023-04-04T11:05:47.184Z,82.20
2023-04-04T11:08:25.184Z,80.30
2023-04-04T11:10:54.790Z,81.10
2023-04-04T11:13:29.122Z,80.70
2023-04-04T11:16:07.205Z,80.10
2023-04-04T11:18:42.848Z,78.40
2023-04-04T11:21:23.982Z,79.40
2023-04-04T11:24:00.390Z,79.80
2023-04-04T11:26:30.234Z,79.30
2023-04-04T11:28:58.849Z,79.20
2023-04-04T11:31:40.386Z,79.20
2023-04-04T11:34:15.151Z,78.70
2023-04-04T11:36:43.095Z,77.00
2023-04-04T11:39:14.441Z,75.70
2023-04-04T11:41:57.436Z,75.20
2023-04-04T11:44:27.749Z,76.10
2023-04-04T11:47:04.158Z,75.30
2023-04-04T11:49:35.381Z,74.40
2023-04-04T11:52:10.790Z,73.60
2023-04-04T11:54:39.114Z,74.50
2023-04-04T11:57:12.761Z,73.60
2023-04-04T11:59:45.630Z,74.00
2023-04-04T12:02:13.998Z,74.70
2023-04-04T12:04:43.753Z,74.60
2023-04-04T12:07:11.266Z,74.60
2023-04-04T12:09:38.757Z,73.80
2023-04-04T12:12:07.619Z,73.90
2023-04-04T12:14:34.554Z,73.70
2023-04-04T12:17:02.732Z,74.00
2023-04-04T12:19:29.737Z,74.30
2023-04-04T12:21:58.030Z,74.30
2023-04-04T12:24:25.009Z,72.80
2023-04-04T12:26:52.913Z,73.50
2023-04-04T12:29:22.786Z,74.40
2023-04-04T12:31:51.714Z,73.40
2023-04-04T12:37:02.035Z,73.20
2023-04-04T12:39:29.670Z,73.40
2023-04-04T12:42:02.669Z,73.50
2023-04-04T12:44:37.323Z,72.70
2023-04-04T12:47:06.644Z,72.10
2023-04-04T12:49:44.231Z,72.30
2023-04-04T12:52:32.650Z,71.50
2023-04-04T12:55:08.604Z,71.90
2023-04-04T12:57:37.017Z,72.40
2023-04-04T13:00:06.185Z,71.60
2023-04-04T13:02:35.717Z,71.10
2023-04-04T13:05:03.914Z,70.70
2023-04-04T13:07:34.807Z,70.60
2023-04-04T13:10:04.528Z,71.30
2023-04-04T13:12:56.023Z,71.90
2023-04-04T13:15:22.815Z,71.90
2023-04-04T13:17:51.227Z,72.30
2023-04-04T13:20:19.698Z,71.40
2023-04-04T13:22:46.415Z,69.20
2023-04-04T13:25:13.163Z,69.00
2023-04-04T13:27:40.376Z,70.00
2023-04-04T13:30:10.073Z,69.80
2023-04-04T13:32:38.319Z,69.80
2023-04-04T13:35:05.500Z,69.70
2023-04-04T13:37:32.420Z,70.10
2023-04-04T13:39:59.078Z,69.90
2023-04-04T13:42:30.227Z,70.20
2023-04-04T13:44:57.385Z,70.60
2023-04-04T13:47:27.507Z,70.30
2023-04-04T13:49:57.789Z,70.40
2023-04-04T13:52:24.585Z,70.90
2023-04-04T13:54:51.246Z,70.10
2023-04-04T13:57:17.893Z,70.10
2023-04-04T13:59:44.854Z,70.60
2023-04-04T14:02:11.608Z,70.70
2023-04-04T14:04:38.382Z,69.80
2023-04-04T14:07:05.501Z,70.10
2023-04-04T14:09:32.149Z,69.10
2023-04-04T14:11:59.037Z,69.10
2023-04-04T14:14:26.040Z,69.60
2023-04-04T14:16:53.007Z,69.40
2023-04-04T14:19:19.707Z,68.10
2023-04-04T14:21:46.349Z,69.20
2023-04-04T14:24:13.025Z,69.20
2023-04-04T14:26:39.716Z,69.20
2023-04-04T14:29:06.898Z,69.50
2023-04-04T14:31:34.850Z,69.90
2023-04-04T14:34:02.908Z,69.60
2023-04-04T14:36:29.776Z,69.10
2023-04-04T14:38:56.734Z,68.40
2023-04-04T14:41:23.524Z,68.70
2023-04-04T14:43:50.623Z,69.10
2023-04-04T14:46:19.455Z,68.20
2023-04-04T14:48:47.664Z,69.30
2023-04-04T14:51:14.461Z,68.70
2023-04-04T14:53:41.265Z,68.70
2023-04-04T14:56:08.612Z,68.90
2023-04-04T14:58:35.935Z,69.20
2023-04-04T15:01:03.626Z,69.20
2023-04-04T15:03:30.633Z,69.60
2023-04-04T15:05:57.662Z,69.60
2023-04-04T15:08:24.544Z,69.30
2023-04-04T15:10:51.319Z,69.60
2023-04-04T15:13:18.024Z,69.40
2023-04-04T15:15:45.255Z,68.40
2023-04-04T15:18:11.904Z,68.20
2023-04-04T15:20:41.645Z,68.30
2023-04-04T15:23:08.939Z,68.70
2023-04-04T15:25:36.630Z,69.10
2023-04-04T15:28:03.326Z,69.40
2023-04-04T15:30:30.991Z,69.70
2023-04-04T15:32:57.678Z,69.70
2023-04-04T15:35:24.488Z,69.50
2023-04-04T15:37:51.339Z,69.70
2023-04-04T15:40:19.140Z,68.90
2023-04-04T15:42:46.772Z,69.80
2023-04-04T15:45:14.442Z,68.60
2023-04-04T15:47:42.688Z,68.70
2023-04-04T15:50:11.600Z,68.40
2023-04-04T15:52:38.522Z,68.20
2023-04-04T15:55:11.164Z,68.20
2023-04-04T15:57:37.825Z,67.90
2023-04-04T16:00:05.219Z,68.10
2023-04-04T16:02:32.078Z,68.80
2023-04-04T16:04:58.806Z,69.60
2023-04-04T16:07:25.896Z,69.60
2023-04-04T16:09:52.559Z,69.70
2023-04-04T16:12:20.225Z,69.60
2023-04-04T16:14:46.911Z,70.00
2023-04-04T16:17:13.647Z,70.20
2023-04-04T16:19:40.448Z,70.60
2023-04-04T16:22:07.903Z,70.60
2023-04-04T16:24:34.702Z,70.80
2023-04-04T16:27:01.586Z,71.10
2023-04-04T16:29:31.112Z,71.40
2023-04-04T16:31:57.883Z,71.60
2023-04-04T16:34:24.532Z,71.80
2023-04-04T16:36:51.268Z,71.40
2023-04-04T16:39:18.036Z,71.40
2023-04-04T16:41:44.681Z,71.60
2023-04-04T16:44:12.306Z,71.80
2023-04-04T16:46:39.034Z,71.40
2023-04-04T16:49:05.853Z,71.50
2023-04-04T16:51:32.536Z,71.50
2023-04-04T16:53:59.289Z,71.80
2023-04-04T16:56:26.078Z,72.00
2023-04-04T16:58:52.776Z,71.70
2023-04-04T17:01:22.591Z,72.00
2023-04-04T17:03:49.810Z,72.00
2023-04-04T17:06:16.596Z,72.50
2023-04-04T17:08:45.125Z,73.20
2023-04-04T17:11:13.328Z,73.50
2023-04-04T17:13:40.124Z,73.70
2023-04-04T17:16:07.363Z,74.00
2023-04-04T17:18:34.255Z,73.60
2023-04-04T17:21:01.314Z,72.10
2023-04-04T17:23:28.067Z,71.00
2023-04-04T17:25:54.820Z,70.10
2023-04-04T17:28:21.623Z,68.50
2023-04-04T17:30:48.356Z,67.90
2023-04-04T17:33:15.347Z,67.90
2023-04-04T17:35:42.967Z,68.00
2023-04-04T17:38:09.641Z,66.10
2023-04-04T17:40:36.538Z,66.10
2023-04-04T17:43:03.295Z,66.60
2023-04-04T17:45:29.972Z,67.30
2023-04-04T17:47:56.755Z,67.80
2023-04-04T17:50:23.457Z,68.00
2023-04-04T17:52:50.307Z,68.50
2023-04-04T17:55:17.995Z,68.80
2023-04-04T17:57:45.093Z,69.20
2023-04-04T18:00:12.546Z,69.50
2023-04-04T18:02:39.323Z,70.00
2023-04-04T18:05:06.904Z,70.40
2023-04-04T18:07:33.550Z,70.90
2023-04-04T18:10:00.557Z,71.20
2023-04-04T18:12:30.168Z,71.70
2023-04-04T18:14:56.949Z,72.30
2023-04-04T18:17:24.765Z,72.70
2023-04-04T18:19:54.584Z,73.10
2023-04-04T18:22:22.625Z,73.50
2023-04-04T18:24:49.585Z,73.60
2023-04-04T18:27:16.269Z,74.10
2023-04-04T18:29:43.066Z,74.50
2023-04-04T18:32:09.846Z,74.80
2023-04-04T18:34:37.513Z,75.20
2023-04-04T18:37:04.181Z,75.40
2023-04-04T18:39:35.095Z,75.60
2023-04-04T18:42:03.052Z,75.90
2023-04-04T18:44:31.242Z,76.20
2023-04-04T18:47:00.465Z,76.50
2023-04-04T18:49:27.213Z,76.90
2023-04-04T18:51:54.005Z,77.20
2023-04-04T18:54:20.783Z,77.40
2023-04-04T18:56:47.446Z,77.70
2023-04-04T18:59:14.886Z,78.10
2023-04-04T19:01:41.709Z,78.40
2023-04-04T19:04:08.695Z,78.50
2023-04-04T19:06:36.598Z,78.30
2023-04-04T19:09:04.583Z,78.70
2023-04-04T19:11:31.873Z,79.00
2023-04-04T19:13:58.675Z,79.30
2023-04-04T19:16:25.402Z,79.50
2023-04-04T19:18:52.108Z,79.60
2023-04-04T19:21:18.825Z,79.90
2023-04-04T19:23:46.534Z,80.10
2023-04-04T19:26:13.187Z,80.00
2023-04-04T19:28:40.613Z,80.40
2023-04-04T19:31:13.078Z,80.70
2023-04-04T19:33:39.871Z,80.70
2023-04-04T19:36:11.895Z,81.00
2023-04-04T19:38:42.532Z,81.30
2023-04-04T19:41:16.792Z,81.50
2023-04-04T19:43:45.616Z,81.70
2023-04-04T19:46:21.572Z,81.80
2023-04-04T19:48:52.317Z,81.90
2023-04-04T19:51:19.916Z,81.90
2023-04-04T19:53:51.944Z,81.40
2023-04-04T19:56:21.270Z,82.30
2023-04-04T19:58:52.914Z,82.50
2023-04-04T20:01:22.868Z,82.60
2023-04-04T20:03:49.885Z,83.10
2023-04-04T20:06:24.775Z,82.90
2023-04-04T20:08:52.111Z,83.20
2023-04-04T20:11:24.170Z,83.30
2023-04-04T20:13:50.872Z,83.40
2023-04-04T20:16:17.917Z,83.70
2023-04-04T20:18:46.388Z,83.80
2023-04-04T20:21:20.984Z,84.20
2023-04-04T20:23:55.198Z,84.40
2023-04-04T20:26:54.504Z,84.70
2023-04-04T20:29:28.825Z,84.90
2023-04-04T20:31:58.269Z,84.80
2023-04-04T20:34:46.726Z,84.80
2023-04-04T20:37:22.756Z,85.00
2023-04-04T20:39:57.118Z,85.20
2023-04-04T20:42:30.367Z,85.30
2023-04-04T20:45:00.917Z,85.20
2023-04-04T20:47:46.179Z,85.20
2023-04-04T20:50:20.721Z,85.40
2023-04-04T20:52:55.591Z,85.40
2023-04-04T20:55:25.499Z,85.50
2023-04-04T20:57:53.987Z,85.80
2023-04-04T21:00:30.279Z,86.40
2023-04-04T21:02:59.461Z,86.90
2023-04-04T21:05:34.676Z,86.80
2023-04-04T21:08:02.716Z,86.50
2023-04-04T21:10:29.317Z,86.60
2023-04-04T21:13:03.395Z,86.40
2023-04-04T21:15:38.208Z,86.50
2023-04-04T21:18:10.114Z,86.70
2023-04-04T21:20:54.800Z,86.90
2023-04-04T21:23:27.483Z,87.20
2023-04-04T21:25:58.617Z,87.40
2023-04-04T21:28:34.811Z,87.90
2023-04-04T21:31:12.059Z,87.80
2023-04-04T21:33:39.211Z,87.80
2023-04-04T21:36:07.855Z,88.20
2023-04-04T21:38:35.422Z,88.40
2023-04-04T21:41:22.404Z,88.30
2023-04-04T21:43:49.127Z,88.50
2023-04-04T21:46:15.935Z,88.60
2023-04-04T21:48:42.693Z,88.70
2023-04-04T21:51:09.368Z,88.70
2023-04-04T21:53:36.019Z,88.60
2023-04-04T21:56:02.643Z,89.00
2023-04-04T21:58:29.686Z,89.20
2023-04-04T22:00:56.380Z,89.30
2023-04-04T22:03:23.011Z,89.00
2023-04-04T22:05:49.724Z,89.00
2023-04-04T22:08:16.440Z,89.00
2023-04-04T22:10:46.336Z,89.10
2023-04-04T22:13:18.652Z,89.10
2023-04-04T22:15:46.954Z,89.20
2023-04-04T22:18:17.297Z,89.10
2023-04-04T22:20:47.924Z,89.40
2023-04-04T22:23:17.660Z,89.50
2023-04-04T22:25:44.346Z,89.70
2023-04-04T22:28:11.044Z,89.80
2023-04-04T22:30:39.193Z,89.60
2023-04-04T22:33:06.180Z,89.60
2023-04-04T22:35:33.163Z,90.00
2023-04-04T22:38:03.712Z,90.10
2023-04-04T22:40:32.084Z,90.20
2023-04-04T22:42:59.469Z,90.10
2023-04-04T22:45:29.508Z,90.10
2023-04-04T22:47:57.900Z,90.30
2023-04-04T22:50:25.071Z,90.30
2023-04-04T22:52:54.610Z,90.50
2023-04-04T22:55:23.897Z,90.60
2023-04-04T22:57:51.011Z,90.70
2023-04-04T23:00:18.362Z,90.60
2023-04-04T23:02:46.645Z,90.40
2023-04-04T23:05:16.040Z,90.50
2023-04-04T23:07:43.865Z,90.50
2023-04-04T23:10:12.682Z,90.60
2023-04-04T23:12:40.026Z,90.60
2023-04-04T23:15:08.174Z,90.70
2023-04-04T23:17:36.466Z,90.60
2023-04-04T23:20:10.110Z,90.50
2023-04-04T23:22:37.781Z,90.60
2023-04-04T23:25:06.516Z,90.90
2023-04-04T23:27:33.610Z,90.70
2023-04-04T23:30:03.863Z,90.80
2023-04-04T23:32:31.786Z,90.80
2023-04-04T23:34:58.533Z,90.90
2023-04-04T23:37:25.267Z,91.00
2023-04-04T23:39:52.120Z,91.20
2023-04-04T23:42:18.805Z,91.30
2023-04-04T23:44:45.772Z,91.30
2023-04-04T23:47:12.860Z,91.40
2023-04-04T23:49:39.651Z,91.40
2023-04-04T23:52:06.866Z,91.30
2023-04-04T23:54:33.908Z,91.20
2023-04-04T23:57:00.723Z,91.00
2023-04-04T23:59:27.538Z,91.10
